Huvudsida
METAR-TAF:

METAR-TAF

Flygplatser :

Kiana, Alaska, USA

latitud: 66-59N, longitud: 160-26W, höjd: 46 m

Aktuellt väderrapport

Denna rapport gjordes för 58 minuter sedan, klockan 17:56 UTC
Vind 9 kt från väst/sydväst
Temperatur 10°C
Fuktighet 66%
Tryck 1025 hPa
Sikt: 14.5 km
Klar himmel

METAR: PAIK 141756Z AUTO 25009KT 9SM CLR 10/04 A3027 RMK AO2 SLP253 T01000044 10100 20061 51009

Tid: 10:54 (18:54 UTC)


TAF: saknas

Aktuella väderrapporter och prognoser från 4000 flygplatser (METAR- och TAF-rapporter).

De tillgängliga stationerna syns som gula och röda prickar på kartan.

För musen över prickarna för att se namnen på stationerna.

Klicka sedan för att få väderrapporter och prognoser.

För att ändra kartan: Klicka på de gröna knapparna med ett svart kors på för att zooma in; den gröna knappen med ett streck på för att zooma ut; eller på de gröna pilarna för angränsande kartor.


METAR-TAF: